Chiniot Weather



Chiniot's Current Weather

Temprature 29.95o clear sky

clear sky

Rain: 0 %

Min Temprature29.95o
Max Temprature29.95o
Humidity57
Wind Speed3.02 m/h
Sun Rise05:37:52
Sun Set18:44:16
Current Time: 23-Aug-2019 05:05:13
Lat/Lon: 31.72, 72.98




Chiniot's Geo Location



Chiniot's Weather Forecast

Time Overall Temp Min Temp Max Temp Humidity Wind Speed Rain
23-Aug-2019 (Fri)
08:00:00 clear sky 32.630 32.627 32.630 49 3.42 m/h 0 %
11:00:00 clear sky 38.250 38.250 38.250 30 3.05 m/h 0 %
14:00:00 clear sky 41.230 41.230 41.231 21 2.6 m/h 0 %
17:00:00 clear sky 41.310 41.310 41.311 20 2.72 m/h 0 %
20:00:00 clear sky 36.950 36.950 36.950 27 2.84 m/h 0 %
23:00:00 clear sky 34.942 34.942 34.942 30 3.18 m/h 0 %
24-Aug-2019 (Sat)
02:00:00 clear sky 32.531 32.531 32.531 39 3.65 m/h 0 %
05:00:00 clear sky 30.655 30.655 30.655 45 2.33 m/h 0 %
08:00:00 clear sky 33.797 33.797 33.797 35 2.83 m/h 0 %
11:00:00 clear sky 39.669 39.669 39.669 22 2.54 m/h 0 %
14:00:00 clear sky 43.069 43.069 43.069 17 1.86 m/h 0 %
17:00:00 clear sky 42.723 42.723 42.723 16 1.71 m/h 0 %
20:00:00 clear sky 38.050 38.050 38.050 22 2.37 m/h 0 %
23:00:00 clear sky 35.669 35.669 35.669 29 5.25 m/h 0 %
25-Aug-2019 (Sun)
02:00:00 clear sky 32.931 32.931 32.931 36 1.5 m/h 0 %
05:00:00 clear sky 31.457 31.457 31.457 41 2.15 m/h 0 %
08:00:00 clear sky 34.914 34.914 34.914 28 2.14 m/h 0 %
11:00:00 clear sky 40.516 40.516 40.516 19 3.05 m/h 0 %
14:00:00 clear sky 44.050 44.050 44.050 14 1.63 m/h 0 %
17:00:00 clear sky 43.750 43.750 43.750 12 0.56 m/h 0 %
20:00:00 clear sky 38.381 38.381 38.381 18 2.99 m/h 0 %
23:00:00 clear sky 34.911 34.911 34.911 44 7.35 m/h 0 %
26-Aug-2019 (Mon)
02:00:00 clear sky 32.565 32.565 32.565 51 5.15 m/h 0 %
05:00:00 clear sky 30.350 30.350 30.350 63 5.33 m/h 0 %
08:00:00 clear sky 31.867 31.867 31.867 57 5.6 m/h 0 %
11:00:00 clear sky 38.272 38.272 38.272 34 4.99 m/h 0 %
14:00:00 clear sky 42.084 42.084 42.084 23 4.15 m/h 0 %
17:00:00 clear sky 42.420 42.420 42.420 20 3.57 m/h 0 %
20:00:00 overcast clouds 37.272 37.272 37.272 31 4.99 m/h 0 %
23:00:00 overcast clouds 34.714 34.714 34.714 42 6.2 m/h 0 %
27-Aug-2019 (Tue)
02:00:00 overcast clouds 33.216 33.216 33.216 49 3.84 m/h 0 %
05:00:00 scattered clouds 31.750 31.750 31.750 53 2.04 m/h 0 %
08:00:00 overcast clouds 34.535 34.535 34.535 44 2.22 m/h 0 %
11:00:00 broken clouds 39.636 39.636 39.636 31 2.38 m/h 0 %
14:00:00 overcast clouds 41.136 41.136 41.136 26 2.07 m/h 0 %
17:00:00 overcast clouds 40.165 40.165 40.165 28 1.57 m/h 0 %
20:00:00 overcast clouds 37.350 37.350 37.350 34 3.24 m/h 0 %
23:00:00 broken clouds 35.350 35.350 35.350 38 3.93 m/h 0 %
28-Aug-2019 (Wed)
02:00:00 light rain 32.757 32.757 32.757 46 2.86 m/h 19 %
05:00:00 light rain 30.572 30.572 30.572 55 1.63 m/h 106 %


Chiniot's Tourist Spots

Historical Places in Chiniot

Famous Cities (61)